SWA3618 KSJC-KLAX
Flight info
| Callsign | SWA3618 |
|---|---|
| Flight time | 0h 49m |
| Altitude | 35000 |
| Route | SPTNS1 VLREE EBAYE BURGL IRNMN2 |
| Aircraft | B737/M-SADE2E3GIJ4RWZ/LB1D1 |
Departure
| Time | 2026-04-21 04:14 |
|---|---|
| Airport | Norman Y. Mineta San Jose International Airport (KSJC) |
Arrival
| Time | 2026-04-21 05:04 |
|---|---|
| Airport | Los Angeles International Airport (KLAX) |
| Time | Latitude | Longitude | Altitude | Speed | Heading |
|---|---|---|---|---|---|
| 2026-04-21 03:34 | 37.36593 | -121.92636 | 52 ft | 0 kts | 50° |
| 2026-04-21 04:03 | 37.36592 | -121.92639 | 60 ft | 3 kts | 50° |
| 2026-04-21 04:04 | 37.36574 | -121.92665 | 54 ft | 4 kts | 49° |
| 2026-04-21 04:04 | 37.36556 | -121.92689 | 58 ft | 4 kts | 37° |
| 2026-04-21 04:04 | 37.36535 | -121.92701 | 61 ft | 4 kts | 340° |
| 2026-04-21 04:04 | 37.36530 | -121.92698 | 61 ft | 0 kts | 319° |
| 2026-04-21 04:08 | 37.36531 | -121.92699 | 61 ft | 1 kts | 319° |
| 2026-04-21 04:08 | 37.36539 | -121.92708 | 61 ft | 3 kts | 318° |
| 2026-04-21 04:08 | 37.36557 | -121.92728 | 57 ft | 5 kts | 319° |
| 2026-04-21 04:09 | 37.36587 | -121.92761 | 57 ft | 7 kts | 319° |
| 2026-04-21 04:09 | 37.36624 | -121.92801 | 54 ft | 8 kts | 319° |
| 2026-04-21 04:09 | 37.36667 | -121.92847 | 57 ft | 8 kts | 319° |
| 2026-04-21 04:09 | 37.36713 | -121.92897 | 58 ft | 9 kts | 319° |
| 2026-04-21 04:10 | 37.36758 | -121.92947 | 54 ft | 9 kts | 319° |
| 2026-04-21 04:10 | 37.36803 | -121.92996 | 54 ft | 8 kts | 319° |
| 2026-04-21 04:10 | 37.36846 | -121.93044 | 58 ft | 8 kts | 317° |
| 2026-04-21 04:10 | 37.36889 | -121.93091 | 54 ft | 8 kts | 319° |
| 2026-04-21 04:11 | 37.36930 | -121.93135 | 53 ft | 8 kts | 319° |
| 2026-04-21 04:11 | 37.36970 | -121.93180 | 60 ft | 8 kts | 319° |
| 2026-04-21 04:11 | 37.37013 | -121.93227 | 57 ft | 8 kts | 319° |
| 2026-04-21 04:11 | 37.37059 | -121.93277 | 58 ft | 9 kts | 319° |
| 2026-04-21 04:12 | 37.37108 | -121.93331 | 55 ft | 10 kts | 319° |
| 2026-04-21 04:12 | 37.37163 | -121.93391 | 55 ft | 11 kts | 319° |
| 2026-04-21 04:12 | 37.37225 | -121.93458 | 56 ft | 12 kts | 319° |
| 2026-04-21 04:12 | 37.37288 | -121.93539 | 58 ft | 13 kts | 295° |
| 2026-04-21 04:13 | 37.37314 | -121.93647 | 55 ft | 13 kts | 302° |
| 2026-04-21 04:13 | 37.37385 | -121.93731 | 54 ft | 15 kts | 319° |
| 2026-04-21 04:13 | 37.37468 | -121.93822 | 56 ft | 17 kts | 319° |
| 2026-04-21 04:13 | 37.37519 | -121.93945 | 58 ft | 17 kts | 250° |
| 2026-04-21 04:14 | 37.37420 | -121.93932 | 60 ft | 22 kts | 140° |
| 2026-04-21 04:14 | 37.37112 | -121.93595 | 64 ft | 100 kts | 138° |
| 2026-04-21 04:14 | 37.36398 | -121.92827 | 118 ft | 164 kts | 142° |
| 2026-04-21 04:14 | 37.35524 | -121.91861 | 1020 ft | 160 kts | 140° |
| 2026-04-21 04:15 | 37.34721 | -121.90963 | 2034 ft | 154 kts | 141° |
| 2026-04-21 04:15 | 37.33854 | -121.89998 | 2482 ft | 183 kts | 142° |
| 2026-04-21 04:15 | 37.32817 | -121.88850 | 2770 ft | 214 kts | 141° |
| 2026-04-21 04:15 | 37.31628 | -121.87532 | 3065 ft | 243 kts | 142° |
| 2026-04-21 04:16 | 37.30322 | -121.86080 | 3781 ft | 253 kts | 142° |
| 2026-04-21 04:16 | 37.29004 | -121.84583 | 4726 ft | 257 kts | 139° |
| 2026-04-21 04:16 | 37.27840 | -121.82894 | 5734 ft | 259 kts | 134° |
| 2026-04-21 04:16 | 37.26721 | -121.81097 | 6726 ft | 263 kts | 133° |
| 2026-04-21 04:17 | 37.25602 | -121.79274 | 7709 ft | 265 kts | 134° |
| 2026-04-21 04:17 | 37.24462 | -121.77426 | 8727 ft | 268 kts | 134° |
| 2026-04-21 04:17 | 37.23314 | -121.75576 | 9870 ft | 268 kts | 134° |
| 2026-04-21 04:17 | 37.22147 | -121.73712 | 10694 ft | 279 kts | 134° |
| 2026-04-21 04:18 | 37.20871 | -121.71697 | 10944 ft | 311 kts | 134° |
| 2026-04-21 04:18 | 37.19467 | -121.69483 | 11286 ft | 335 kts | 134° |
| 2026-04-21 04:18 | 37.17997 | -121.67156 | 12072 ft | 343 kts | 134° |
| 2026-04-21 04:18 | 37.16507 | -121.64789 | 13056 ft | 347 kts | 134° |
| 2026-04-21 04:19 | 37.15002 | -121.62402 | 14033 ft | 350 kts | 134° |
| 2026-04-21 04:19 | 37.13503 | -121.60032 | 14949 ft | 352 kts | 134° |
| 2026-04-21 04:19 | 37.11969 | -121.57612 | 15933 ft | 355 kts | 134° |
| 2026-04-21 04:19 | 37.10427 | -121.55183 | 16886 ft | 357 kts | 134° |
| 2026-04-21 04:20 | 37.08874 | -121.52741 | 17819 ft | 361 kts | 134° |
| 2026-04-21 04:20 | 37.07290 | -121.50258 | 18476 ft | 371 kts | 134° |
| 2026-04-21 04:20 | 37.05576 | -121.47793 | 19032 ft | 375 kts | 141° |
| 2026-04-21 04:20 | 37.03647 | -121.45597 | 19763 ft | 375 kts | 145° |
| 2026-04-21 04:21 | 37.01665 | -121.43532 | 20577 ft | 375 kts | 147° |
| 2026-04-21 04:21 | 36.99632 | -121.41457 | 21285 ft | 380 kts | 147° |
| 2026-04-21 04:21 | 36.97544 | -121.39316 | 21961 ft | 385 kts | 147° |
| 2026-04-21 04:21 | 36.95468 | -121.37163 | 22637 ft | 390 kts | 147° |
| 2026-04-21 04:22 | 36.93400 | -121.34995 | 23313 ft | 394 kts | 147° |
| 2026-04-21 04:22 | 36.91295 | -121.32772 | 23811 ft | 399 kts | 147° |
| 2026-04-21 04:22 | 36.89155 | -121.30505 | 24242 ft | 406 kts | 147° |
| 2026-04-21 04:22 | 36.86995 | -121.28211 | 24764 ft | 409 kts | 147° |
| 2026-04-21 04:23 | 36.84819 | -121.25897 | 25320 ft | 412 kts | 147° |
| 2026-04-21 04:23 | 36.82627 | -121.23570 | 25847 ft | 415 kts | 147° |
| 2026-04-21 04:23 | 36.80419 | -121.21225 | 26420 ft | 417 kts | 147° |
| 2026-04-21 04:23 | 36.78949 | -121.19666 | 26754 ft | 419 kts | 148° |
| 2026-04-21 04:24 | 36.75979 | -121.16522 | 27288 ft | 425 kts | 147° |
| 2026-04-21 04:24 | 36.73712 | -121.14127 | 27694 ft | 430 kts | 147° |
| 2026-04-21 04:24 | 36.72165 | -121.12492 | 27987 ft | 432 kts | 148° |
| 2026-04-21 04:24 | 36.69863 | -121.10058 | 28443 ft | 435 kts | 148° |
| 2026-04-21 04:25 | 36.67545 | -121.07609 | 28885 ft | 439 kts | 148° |
| 2026-04-21 04:25 | 36.65208 | -121.05142 | 29313 ft | 442 kts | 148° |
| 2026-04-21 04:25 | 36.62855 | -121.02661 | 29760 ft | 444 kts | 148° |
| 2026-04-21 04:25 | 36.60532 | -121.00216 | 30311 ft | 442 kts | 148° |
| 2026-04-21 04:26 | 36.58172 | -120.97775 | 30743 ft | 442 kts | 148° |
| 2026-04-21 04:26 | 36.55782 | -120.95345 | 31039 ft | 445 kts | 149° |
| 2026-04-21 04:26 | 36.53375 | -120.92912 | 31479 ft | 444 kts | 149° |
| 2026-04-21 04:26 | 36.50986 | -120.90495 | 32080 ft | 440 kts | 149° |
| 2026-04-21 04:27 | 36.48618 | -120.88097 | 32700 ft | 437 kts | 149° |
| 2026-04-21 04:27 | 36.46261 | -120.85708 | 33183 ft | 436 kts | 149° |
| 2026-04-21 04:27 | 36.43935 | -120.83354 | 33552 ft | 438 kts | 149° |
| 2026-04-21 04:27 | 36.41571 | -120.80962 | 33970 ft | 438 kts | 149° |
| 2026-04-21 04:28 | 36.39215 | -120.78577 | 34394 ft | 436 kts | 149° |
| 2026-04-21 04:28 | 36.36865 | -120.76199 | 34788 ft | 435 kts | 149° |
| 2026-04-21 04:28 | 36.34504 | -120.73813 | 34978 ft | 439 kts | 149° |
| 2026-04-21 04:29 | 36.29725 | -120.68993 | 34986 ft | 441 kts | 149° |
| 2026-04-21 04:29 | 36.25042 | -120.64263 | 34980 ft | 435 kts | 149° |
| 2026-04-21 04:30 | 36.20315 | -120.59508 | 34988 ft | 439 kts | 149° |
| 2026-04-21 04:30 | 36.15562 | -120.54734 | 35019 ft | 441 kts | 149° |
| 2026-04-21 04:31 | 36.10777 | -120.49934 | 34971 ft | 443 kts | 149° |
| 2026-04-21 04:31 | 36.05979 | -120.45126 | 35003 ft | 444 kts | 148° |
| 2026-04-21 04:32 | 36.01205 | -120.40350 | 35002 ft | 444 kts | 148° |
| 2026-04-21 04:32 | 35.96393 | -120.35544 | 34982 ft | 444 kts | 148° |
| 2026-04-21 04:33 | 35.91603 | -120.30766 | 35017 ft | 442 kts | 148° |
| 2026-04-21 04:33 | 35.86802 | -120.26015 | 35000 ft | 441 kts | 150° |
| 2026-04-21 04:34 | 35.81681 | -120.21988 | 34986 ft | 436 kts | 156° |
| 2026-04-21 04:34 | 35.76503 | -120.18203 | 34998 ft | 436 kts | 156° |
| 2026-04-21 04:35 | 35.71299 | -120.14315 | 34995 ft | 436 kts | 155° |
| 2026-04-21 04:35 | 35.66112 | -120.10409 | 34972 ft | 437 kts | 155° |
| 2026-04-21 04:36 | 35.60923 | -120.06495 | 34998 ft | 438 kts | 155° |
| 2026-04-21 04:36 | 35.55754 | -120.02596 | 34976 ft | 438 kts | 155° |
| 2026-04-21 04:37 | 35.50540 | -119.98669 | 35001 ft | 440 kts | 155° |
| 2026-04-21 04:37 | 35.45308 | -119.94736 | 34999 ft | 441 kts | 155° |
| 2026-04-21 04:38 | 35.40049 | -119.90787 | 34963 ft | 442 kts | 155° |
| 2026-04-21 04:38 | 35.34826 | -119.86872 | 34987 ft | 443 kts | 155° |
| 2026-04-21 04:39 | 35.29553 | -119.82925 | 34986 ft | 444 kts | 155° |
| 2026-04-21 04:39 | 35.24448 | -119.78552 | 34964 ft | 449 kts | 148° |
| 2026-04-21 04:40 | 35.19535 | -119.73804 | 34964 ft | 450 kts | 147° |
| 2026-04-21 04:40 | 35.14632 | -119.69120 | 34970 ft | 450 kts | 148° |
| 2026-04-21 04:41 | 35.09652 | -119.64459 | 34967 ft | 450 kts | 148° |
| 2026-04-21 04:41 | 35.07148 | -119.62133 | 34479 ft | 457 kts | 148° |
| 2026-04-21 04:41 | 35.04616 | -119.59782 | 33727 ft | 457 kts | 148° |
| 2026-04-21 04:41 | 35.02077 | -119.57424 | 32796 ft | 457 kts | 148° |
| 2026-04-21 04:42 | 34.99543 | -119.55070 | 31912 ft | 457 kts | 148° |
| 2026-04-21 04:42 | 34.97002 | -119.52711 | 30975 ft | 458 kts | 148° |
| 2026-04-21 04:42 | 34.94486 | -119.50378 | 30015 ft | 460 kts | 148° |
| 2026-04-21 04:42 | 34.91932 | -119.48013 | 29008 ft | 460 kts | 148° |
| 2026-04-21 04:43 | 34.89410 | -119.45701 | 28513 ft | 448 kts | 148° |
| 2026-04-21 04:43 | 34.86927 | -119.43472 | 28036 ft | 438 kts | 149° |
| 2026-04-21 04:43 | 34.84481 | -119.41298 | 27604 ft | 435 kts | 149° |
| 2026-04-21 04:43 | 34.82012 | -119.39108 | 27156 ft | 441 kts | 149° |
| 2026-04-21 04:44 | 34.79529 | -119.36898 | 26687 ft | 441 kts | 148° |
| 2026-04-21 04:44 | 34.77075 | -119.34704 | 26217 ft | 432 kts | 148° |
| 2026-04-21 04:44 | 34.74680 | -119.32561 | 25767 ft | 421 kts | 149° |
| 2026-04-21 04:44 | 34.72408 | -119.30560 | 25344 ft | 410 kts | 149° |
| 2026-04-21 04:45 | 34.70145 | -119.28587 | 24954 ft | 401 kts | 149° |
| 2026-04-21 04:45 | 34.67894 | -119.26628 | 24543 ft | 394 kts | 149° |
| 2026-04-21 04:45 | 34.65676 | -119.24696 | 24124 ft | 389 kts | 149° |
| 2026-04-21 04:45 | 34.63492 | -119.22800 | 23891 ft | 381 kts | 150° |
| 2026-04-21 04:46 | 34.61347 | -119.20951 | 23599 ft | 375 kts | 150° |
| 2026-04-21 04:46 | 34.59226 | -119.19125 | 23351 ft | 374 kts | 150° |
| 2026-04-21 04:46 | 34.57113 | -119.17311 | 23107 ft | 378 kts | 150° |
| 2026-04-21 04:46 | 34.54963 | -119.15447 | 22567 ft | 383 kts | 149° |
| 2026-04-21 04:47 | 34.52812 | -119.13542 | 22006 ft | 382 kts | 149° |
| 2026-04-21 04:47 | 34.50679 | -119.11639 | 21422 ft | 377 kts | 149° |
| 2026-04-21 04:47 | 34.48582 | -119.09773 | 20860 ft | 371 kts | 149° |
| 2026-04-21 04:47 | 34.46511 | -119.07937 | 20320 ft | 367 kts | 149° |
| 2026-04-21 04:48 | 34.44459 | -119.06123 | 19786 ft | 363 kts | 149° |
| 2026-04-21 04:48 | 34.42424 | -119.04345 | 19261 ft | 359 kts | 149° |
| 2026-04-21 04:48 | 34.40399 | -119.02595 | 18718 ft | 356 kts | 150° |
| 2026-04-21 04:48 | 34.38386 | -119.00857 | 18156 ft | 353 kts | 150° |
| 2026-04-21 04:49 | 34.36394 | -118.99134 | 17577 ft | 349 kts | 150° |
| 2026-04-21 04:49 | 34.34433 | -118.97438 | 17039 ft | 344 kts | 149° |
| 2026-04-21 04:49 | 34.32517 | -118.95732 | 16577 ft | 339 kts | 148° |
| 2026-04-21 04:49 | 34.30669 | -118.94044 | 16136 ft | 336 kts | 148° |
| 2026-04-21 04:50 | 34.28808 | -118.92346 | 15728 ft | 334 kts | 148° |
| 2026-04-21 04:50 | 34.26952 | -118.90659 | 15331 ft | 333 kts | 148° |
| 2026-04-21 04:50 | 34.25106 | -118.88983 | 14916 ft | 332 kts | 148° |
| 2026-04-21 04:50 | 34.23269 | -118.87298 | 14513 ft | 331 kts | 148° |
| 2026-04-21 04:51 | 34.21437 | -118.85612 | 14116 ft | 330 kts | 147° |
| 2026-04-21 04:51 | 34.19616 | -118.83937 | 13674 ft | 327 kts | 147° |
| 2026-04-21 04:51 | 34.17822 | -118.82288 | 13242 ft | 321 kts | 147° |
| 2026-04-21 04:51 | 34.16065 | -118.80649 | 12830 ft | 316 kts | 145° |
| 2026-04-21 04:52 | 34.14422 | -118.78916 | 12428 ft | 312 kts | 142° |
| 2026-04-21 04:52 | 34.12835 | -118.77157 | 12037 ft | 307 kts | 142° |
| 2026-04-21 04:52 | 34.11293 | -118.75444 | 11630 ft | 302 kts | 142° |
| 2026-04-21 04:52 | 34.09755 | -118.73749 | 11280 ft | 298 kts | 142° |
| 2026-04-21 04:53 | 34.08230 | -118.72083 | 10907 ft | 293 kts | 142° |
| 2026-04-21 04:53 | 34.06734 | -118.70455 | 10550 ft | 284 kts | 142° |
| 2026-04-21 04:53 | 34.05285 | -118.68881 | 10219 ft | 276 kts | 142° |
| 2026-04-21 04:53 | 34.03895 | -118.67340 | 9858 ft | 268 kts | 137° |
| 2026-04-21 04:54 | 34.02958 | -118.65401 | 9490 ft | 272 kts | 114° |
| 2026-04-21 04:54 | 34.02569 | -118.63135 | 9167 ft | 281 kts | 101° |
| 2026-04-21 04:54 | 34.02369 | -118.60782 | 8798 ft | 282 kts | 99° |
| 2026-04-21 04:54 | 34.02181 | -118.58433 | 8436 ft | 280 kts | 100° |
| 2026-04-21 04:55 | 34.01979 | -118.56098 | 8082 ft | 278 kts | 100° |
| 2026-04-21 04:55 | 34.01776 | -118.53801 | 7825 ft | 273 kts | 100° |
| 2026-04-21 04:55 | 34.01569 | -118.51550 | 7595 ft | 267 kts | 100° |
| 2026-04-21 04:55 | 34.01363 | -118.49351 | 7376 ft | 261 kts | 100° |
| 2026-04-21 04:56 | 34.01163 | -118.47220 | 7184 ft | 249 kts | 100° |
| 2026-04-21 04:56 | 34.01053 | -118.45171 | 6831 ft | 247 kts | 88° |
| 2026-04-21 04:56 | 34.01398 | -118.43112 | 6292 ft | 251 kts | 79° |
| 2026-04-21 04:56 | 34.01782 | -118.41090 | 5744 ft | 250 kts | 79° |
| 2026-04-21 04:57 | 34.02149 | -118.39060 | 5183 ft | 244 kts | 79° |
| 2026-04-21 04:57 | 34.02494 | -118.37099 | 4598 ft | 233 kts | 79° |
| 2026-04-21 04:57 | 34.02803 | -118.35224 | 4016 ft | 222 kts | 83° |
| 2026-04-21 04:57 | 34.02998 | -118.33413 | 3431 ft | 215 kts | 84° |
| 2026-04-21 04:58 | 34.03166 | -118.31674 | 3020 ft | 203 kts | 84° |
| 2026-04-21 04:58 | 34.03328 | -118.30009 | 2668 ft | 192 kts | 83° |
| 2026-04-21 04:58 | 34.03477 | -118.28500 | 2602 ft | 172 kts | 84° |
| 2026-04-21 04:58 | 34.03587 | -118.27097 | 2588 ft | 167 kts | 89° |
| 2026-04-21 04:59 | 34.03218 | -118.25798 | 2598 ft | 168 kts | 133° |
| 2026-04-21 04:59 | 34.02241 | -118.25168 | 2594 ft | 153 kts | 169° |
| 2026-04-21 04:59 | 34.01250 | -118.24942 | 2593 ft | 139 kts | 171° |
| 2026-04-21 04:59 | 34.00321 | -118.24816 | 2575 ft | 132 kts | 190° |
| 2026-04-21 05:00 | 33.99493 | -118.25287 | 2614 ft | 136 kts | 210° |
| 2026-04-21 05:00 | 33.98659 | -118.25848 | 2605 ft | 137 kts | 209° |
| 2026-04-21 05:00 | 33.97254 | -118.27357 | 2602 ft | 137 kts | 225° |
| 2026-04-21 05:01 | 33.96775 | -118.28352 | 2451 ft | 141 kts | 254° |
| 2026-04-21 05:01 | 33.96545 | -118.29468 | 2169 ft | 135 kts | 255° |
| 2026-04-21 05:01 | 33.96327 | -118.30544 | 1814 ft | 130 kts | 253° |
| 2026-04-21 05:01 | 33.96173 | -118.31575 | 1570 ft | 122 kts | 260° |
| 2026-04-21 05:02 | 33.96056 | -118.32619 | 1324 ft | 131 kts | 260° |
| 2026-04-21 05:02 | 33.95927 | -118.33721 | 1236 ft | 134 kts | 260° |
| 2026-04-21 05:02 | 33.95779 | -118.34820 | 1001 ft | 133 kts | 259° |
| 2026-04-21 05:02 | 33.95653 | -118.35910 | 811 ft | 131 kts | 262° |
| 2026-04-21 05:03 | 33.95552 | -118.36996 | 634 ft | 126 kts | 262° |
| 2026-04-21 05:03 | 33.95431 | -118.38005 | 469 ft | 121 kts | 261° |
| 2026-04-21 05:03 | 33.95326 | -118.39019 | 309 ft | 124 kts | 262° |
| 2026-04-21 05:03 | 33.95225 | -118.40075 | 138 ft | 127 kts | 263° |
| 2026-04-21 05:04 | 33.95119 | -118.41078 | 94 ft | 104 kts | 263° |
| 2026-04-21 05:04 | 33.95052 | -118.41735 | 93 ft | 49 kts | 263° |
| 2026-04-21 05:04 | 33.95012 | -118.42037 | 92 ft | 34 kts | 252° |
| 2026-04-21 05:04 | 33.94902 | -118.42236 | 95 ft | 27 kts | 220° |
| 2026-04-21 05:05 | 33.94775 | -118.42280 | 98 ft | 10 kts | 175° |
| 2026-04-21 05:05 | 33.94707 | -118.42270 | 93 ft | 10 kts | 164° |
| 2026-04-21 05:05 | 33.94694 | -118.42199 | 95 ft | 10 kts | 59° |
| 2026-04-21 05:05 | 33.94704 | -118.42121 | 93 ft | 10 kts | 93° |
| 2026-04-21 05:06 | 33.94705 | -118.42040 | 93 ft | 9 kts | 84° |
| 2026-04-21 05:06 | 33.94710 | -118.41984 | 92 ft | 4 kts | 84° |
| 2026-04-21 05:06 | 33.94713 | -118.41948 | 92 ft | 4 kts | 84° |
| 2026-04-21 05:06 | 33.94716 | -118.41912 | 94 ft | 4 kts | 84° |
| 2026-04-21 05:07 | 33.94719 | -118.41878 | 94 ft | 4 kts | 84° |
| 2026-04-21 05:07 | 33.94722 | -118.41844 | 92 ft | 4 kts | 84° |
| 2026-04-21 05:07 | 33.94725 | -118.41812 | 92 ft | 4 kts | 84° |
| 2026-04-21 05:07 | 33.94728 | -118.41779 | 94 ft | 5 kts | 83° |
| 2026-04-21 05:08 | 33.94733 | -118.41729 | 93 ft | 8 kts | 82° |
| 2026-04-21 05:08 | 33.94742 | -118.41652 | 92 ft | 11 kts | 81° |
| 2026-04-21 05:08 | 33.94753 | -118.41551 | 93 ft | 13 kts | 83° |
| 2026-04-21 05:08 | 33.94766 | -118.41440 | 93 ft | 13 kts | 76° |
| 2026-04-21 05:09 | 33.94786 | -118.41335 | 93 ft | 13 kts | 80° |
| 2026-04-21 05:09 | 33.94798 | -118.41230 | 93 ft | 12 kts | 82° |
| 2026-04-21 05:09 | 33.94808 | -118.41128 | 94 ft | 12 kts | 84° |
| 2026-04-21 05:09 | 33.94818 | -118.41029 | 94 ft | 12 kts | 83° |
| 2026-04-21 05:10 | 33.94827 | -118.40932 | 94 ft | 11 kts | 84° |
| 2026-04-21 05:10 | 33.94838 | -118.40838 | 93 ft | 11 kts | 82° |
| 2026-04-21 05:10 | 33.94848 | -118.40742 | 95 ft | 12 kts | 83° |
| 2026-04-21 05:10 | 33.94859 | -118.40641 | 93 ft | 12 kts | 83° |
| 2026-04-21 05:11 | 33.94869 | -118.40544 | 93 ft | 12 kts | 83° |
| 2026-04-21 05:11 | 33.94876 | -118.40480 | 96 ft | 11 kts | 83° |
| 2026-04-21 05:11 | 33.94886 | -118.40386 | 93 ft | 11 kts | 83° |
| 2026-04-21 05:11 | 33.94870 | -118.40302 | 94 ft | 11 kts | 142° |
| 2026-04-21 05:12 | 33.94828 | -118.40234 | 94 ft | 11 kts | 94° |
| 2026-04-21 05:12 | 33.94834 | -118.40155 | 93 ft | 3 kts | 84° |
| 2026-04-21 05:12 | 33.94832 | -118.40133 | 92 ft | 3 kts | 112° |
| 2026-04-21 05:12 | 33.94816 | -118.40123 | 92 ft | 3 kts | 166° |
| 2026-04-21 05:13 | 33.94797 | -118.40123 | 92 ft | 3 kts | 189° |
| 2026-04-21 05:13 | 33.94787 | -118.40125 | 92 ft | 1 kts | 185° |